createdAt,value
2023-03-17T00:01:56.170Z,25.00
2023-03-17T00:04:25.739Z,25.30
2023-03-17T00:06:53.874Z,25.20
2023-03-17T00:09:22.376Z,24.90
2023-03-17T00:11:50.333Z,24.80
2023-03-17T00:14:18.233Z,25.80
2023-03-17T00:16:49.706Z,25.60
2023-03-17T00:19:20.196Z,25.60
2023-03-17T00:21:48.082Z,26.00
2023-03-17T00:24:16.117Z,24.70
2023-03-17T00:26:43.732Z,24.30
2023-03-17T00:29:10.810Z,24.10
2023-03-17T00:31:38.631Z,24.10
2023-03-17T00:34:06.047Z,24.50
2023-03-17T00:36:34.377Z,25.50
2023-03-17T00:39:02.094Z,25.40
2023-03-17T00:41:29.767Z,25.10
2023-03-17T00:43:57.485Z,25.30
2023-03-17T00:46:28.539Z,25.70
2023-03-17T00:48:55.494Z,25.10
2023-03-17T00:51:23.554Z,24.80
2023-03-17T00:53:50.776Z,24.20
2023-03-17T00:56:21.138Z,23.60
2023-03-17T00:58:49.099Z,23.60
2023-03-17T01:01:16.693Z,23.80
2023-03-17T01:03:43.757Z,24.10
2023-03-17T01:06:15.303Z,23.60
2023-03-17T01:08:43.129Z,24.00
2023-03-17T01:11:19.034Z,23.60
2023-03-17T01:13:46.714Z,23.90
2023-03-17T01:16:15.639Z,23.90
2023-03-17T01:18:43.739Z,23.20
2023-03-17T01:21:11.055Z,23.20
2023-03-17T01:23:38.199Z,23.40
2023-03-17T01:26:06.732Z,23.00
2023-03-17T01:28:34.257Z,23.70
2023-03-17T01:31:02.892Z,24.20
2023-03-17T01:33:30.145Z,25.20
2023-03-17T01:35:57.614Z,24.70
2023-03-17T01:38:24.843Z,24.60
2023-03-17T01:40:53.639Z,24.90
2023-03-17T01:43:27.731Z,25.20
2023-03-17T01:46:34.197Z,25.60
2023-03-17T01:49:20.399Z,25.30
2023-03-17T01:52:02.865Z,25.30
2023-03-17T01:54:46.603Z,26.10
2023-03-17T01:57:23.412Z,26.00
2023-03-17T01:59:54.452Z,25.90
2023-03-17T02:02:26.182Z,25.90
2023-03-17T02:04:53.777Z,25.70
2023-03-17T02:07:22.281Z,25.10
2023-03-17T02:09:50.351Z,25.30
2023-03-17T02:12:17.457Z,24.60
2023-03-17T02:14:44.708Z,24.90
2023-03-17T02:17:13.607Z,25.20
2023-03-17T02:19:40.808Z,24.90
2023-03-17T02:22:08.328Z,25.30
2023-03-17T02:24:43.344Z,25.20
2023-03-17T02:27:34.966Z,25.40
2023-03-17T02:30:02.791Z,25.30
2023-03-17T02:32:29.921Z,25.50
2023-03-17T02:34:57.320Z,25.30
2023-03-17T02:37:24.351Z,25.70
2023-03-17T02:39:51.405Z,25.80
2023-03-17T02:42:19.731Z,26.00
2023-03-17T02:44:46.916Z,26.10
2023-03-17T02:47:14.377Z,25.60
2023-03-17T02:49:42.287Z,25.70
2023-03-17T02:52:09.471Z,25.90
2023-03-17T02:54:36.874Z,25.90
2023-03-17T02:57:04.389Z,25.60
2023-03-17T02:59:31.434Z,25.40
2023-03-17T03:01:58.441Z,25.10
2023-03-17T03:04:26.337Z,25.10
2023-03-17T03:06:54.187Z,25.00
2023-03-17T03:09:21.436Z,25.10
2023-03-17T03:11:48.496Z,25.00
2023-03-17T03:14:16.095Z,25.10
2023-03-17T03:16:45.315Z,25.40
2023-03-17T03:19:12.484Z,25.20
2023-03-17T03:21:40.790Z,25.30
2023-03-17T03:24:09.277Z,24.50
2023-03-17T03:26:36.262Z,24.50
2023-03-17T03:29:03.871Z,24.70
2023-03-17T03:31:31.022Z,24.40
2023-03-17T03:33:58.105Z,24.00
2023-03-17T03:36:26.913Z,24.00
2023-03-17T03:38:54.178Z,24.30
2023-03-17T03:41:22.623Z,24.70
2023-03-17T03:43:50.730Z,25.70
2023-03-17T03:46:17.838Z,25.60
2023-03-17T03:48:44.873Z,24.70
2023-03-17T03:51:11.944Z,25.10
2023-03-17T03:53:38.946Z,24.70
2023-03-17T03:56:06.508Z,24.50
2023-03-17T03:58:33.525Z,25.10
2023-03-17T04:01:05.067Z,25.60
2023-03-17T04:03:33.095Z,25.70
2023-03-17T04:06:00.965Z,25.80
2023-03-17T04:08:27.942Z,26.10
2023-03-17T04:10:55.018Z,25.80
2023-03-17T04:13:22.388Z,26.30
2023-03-17T04:15:49.560Z,25.50
2023-03-17T04:18:16.966Z,25.20
2023-03-17T04:20:44.107Z,24.90
2023-03-17T04:23:11.088Z,25.20
2023-03-17T04:25:38.277Z,25.00
2023-03-17T04:28:05.901Z,25.10
2023-03-17T04:30:33.321Z,25.10
2023-03-17T04:33:00.689Z,24.80
2023-03-17T04:35:28.086Z,24.80
2023-03-17T04:37:55.121Z,24.30
2023-03-17T04:40:22.252Z,24.00
2023-03-17T04:42:49.373Z,24.20
2023-03-17T04:45:17.032Z,24.50
2023-03-17T04:47:46.413Z,24.50
2023-03-17T04:50:14.719Z,24.70
2023-03-17T04:52:42.296Z,24.40
2023-03-17T04:55:10.011Z,24.00
2023-03-17T04:57:37.658Z,24.50
2023-03-17T05:00:06.486Z,24.10
2023-03-17T05:02:33.667Z,24.30
2023-03-17T05:05:01.187Z,24.40
2023-03-17T05:07:28.152Z,24.60
2023-03-17T05:09:55.737Z,24.70
2023-03-17T05:12:22.778Z,25.20
2023-03-17T05:14:49.752Z,25.30
2023-03-17T05:17:16.834Z,25.00
2023-03-17T05:19:44.066Z,24.60
2023-03-17T05:22:11.715Z,24.30
2023-03-17T05:24:38.775Z,24.60
2023-03-17T05:27:06.113Z,25.00
2023-03-17T05:29:33.099Z,25.30
2023-03-17T05:32:00.631Z,24.00
2023-03-17T05:34:27.618Z,23.40
2023-03-17T05:36:54.657Z,23.60
2023-03-17T05:39:21.771Z,23.80
2023-03-17T05:41:48.795Z,23.50
2023-03-17T05:44:16.578Z,23.10
2023-03-17T05:46:43.680Z,23.20
2023-03-17T05:49:10.653Z,24.00
2023-03-17T05:51:41.963Z,23.30
2023-03-17T05:54:09.087Z,23.20
2023-03-17T05:56:36.087Z,22.80
2023-03-17T05:59:03.217Z,22.60
2023-03-17T06:01:31.047Z,23.10
2023-03-17T06:03:58.209Z,22.90
2023-03-17T06:06:25.944Z,22.70
2023-03-17T06:08:53.316Z,22.40
2023-03-17T06:11:21.642Z,22.40
2023-03-17T06:13:49.058Z,22.10
2023-03-17T06:16:16.182Z,22.50
2023-03-17T06:18:43.463Z,22.60
2023-03-17T06:21:10.710Z,22.40
2023-03-17T06:23:38.009Z,22.70
2023-03-17T06:26:05.391Z,22.70
2023-03-17T06:28:32.680Z,23.30
2023-03-17T06:30:59.919Z,22.80
2023-03-17T06:33:27.401Z,22.90
2023-03-17T06:35:54.459Z,23.40
2023-03-17T06:38:22.167Z,23.10
2023-03-17T06:40:49.381Z,22.80
2023-03-17T06:43:17.723Z,23.50
2023-03-17T06:45:44.692Z,23.90
2023-03-17T06:48:12.394Z,24.00
2023-03-17T06:50:39.631Z,23.80
2023-03-17T06:53:07.401Z,24.10
2023-03-17T06:55:35.211Z,23.80
2023-03-17T06:58:03.206Z,23.70
2023-03-17T07:00:30.558Z,24.50
2023-03-17T07:02:58.150Z,24.20
2023-03-17T07:05:25.534Z,24.20
2023-03-17T07:07:52.587Z,23.90
2023-03-17T07:10:19.768Z,24.20
2023-03-17T07:12:47.208Z,24.30
2023-03-17T07:15:14.848Z,25.10
2023-03-17T07:17:42.248Z,24.60
2023-03-17T07:20:11.795Z,24.50
2023-03-17T07:22:38.866Z,24.40
2023-03-17T07:25:07.081Z,24.20
2023-03-17T07:27:35.017Z,23.90
2023-03-17T07:30:05.253Z,24.00
2023-03-17T07:32:32.891Z,24.50
2023-03-17T07:35:00.160Z,24.10
2023-03-17T07:37:27.402Z,23.70
2023-03-17T07:39:54.440Z,24.00
2023-03-17T07:42:21.964Z,24.30
2023-03-17T07:44:49.305Z,24.40
2023-03-17T07:47:16.613Z,23.90
2023-03-17T07:49:44.104Z,24.20
2023-03-17T07:52:12.694Z,24.40
2023-03-17T07:54:43.104Z,24.10
2023-03-17T07:57:10.762Z,24.30
2023-03-17T07:59:38.414Z,24.40
2023-03-17T08:02:05.688Z,24.20
2023-03-17T08:04:32.699Z,24.40
2023-03-17T08:06:59.738Z,24.20
2023-03-17T08:09:27.262Z,24.00
2023-03-17T08:11:54.312Z,24.50
2023-03-17T08:14:27.318Z,24.70
2023-03-17T08:16:54.455Z,24.90
2023-03-17T08:19:22.225Z,24.10
2023-03-17T08:21:50.085Z,23.70
2023-03-17T08:24:17.657Z,24.40
2023-03-17T08:26:49.428Z,24.60
2023-03-17T08:29:16.574Z,24.30
2023-03-17T08:31:46.338Z,25.20
2023-03-17T08:34:13.618Z,25.20
2023-03-17T08:36:40.562Z,24.70
2023-03-17T08:39:10.538Z,24.40
2023-03-17T08:41:38.698Z,24.90
2023-03-17T08:44:06.164Z,25.30
2023-03-17T08:46:33.676Z,25.80
2023-03-17T08:49:02.008Z,25.60
2023-03-17T08:51:32.170Z,25.90
2023-03-17T08:53:59.993Z,26.00
2023-03-17T08:56:27.818Z,26.60
2023-03-17T08:58:55.244Z,26.20
2023-03-17T09:01:24.459Z,26.40
2023-03-17T09:03:54.816Z,26.50
2023-03-17T09:06:22.461Z,26.40
2023-03-17T09:08:55.497Z,26.10
2023-03-17T09:11:26.946Z,26.10
2023-03-17T09:13:54.590Z,26.70
2023-03-17T09:16:25.540Z,26.90
2023-03-17T09:18:53.021Z,27.00
2023-03-17T09:21:21.378Z,27.20
2023-03-17T09:23:48.933Z,27.00
2023-03-17T09:26:16.590Z,26.40
2023-03-17T09:28:43.772Z,26.60
2023-03-17T09:31:12.556Z,26.30
2023-03-17T09:33:41.363Z,27.20
2023-03-17T09:36:10.505Z,27.00
2023-03-17T09:38:38.006Z,25.90
2023-03-17T09:41:18.845Z,26.10
2023-03-17T09:44:12.749Z,26.60
2023-03-17T09:46:54.963Z,26.70
2023-03-17T09:49:25.389Z,27.10
2023-03-17T09:51:53.303Z,27.10
2023-03-17T09:54:37.985Z,26.40
2023-03-17T09:57:16.493Z,26.10
2023-03-17T09:59:47.515Z,26.20
2023-03-17T10:02:23.567Z,26.10
2023-03-17T10:04:51.786Z,26.40
2023-03-17T10:07:41.983Z,25.50
2023-03-17T10:10:20.728Z,26.10
2023-03-17T10:13:15.096Z,27.20
2023-03-17T10:16:09.933Z,27.10
2023-03-17T10:18:44.482Z,27.70
2023-03-17T10:21:18.023Z,28.30
2023-03-17T10:23:45.915Z,28.60
2023-03-17T10:26:40.678Z,28.90
2023-03-17T10:29:17.648Z,28.10
2023-03-17T10:31:45.016Z,28.90
2023-03-17T10:34:15.049Z,28.80
2023-03-17T10:36:46.008Z,29.00
2023-03-17T10:39:19.921Z,28.90
2023-03-17T10:42:00.539Z,29.20
2023-03-17T10:44:36.920Z,29.40
2023-03-17T10:47:04.430Z,29.70
2023-03-17T10:49:38.372Z,29.70
2023-03-17T10:52:16.432Z,30.50
2023-03-17T10:54:48.454Z,30.90
2023-03-17T10:57:16.035Z,30.70
2023-03-17T10:59:47.990Z,30.90
2023-03-17T11:02:28.249Z,30.20
2023-03-17T11:05:20.556Z,30.60
2023-03-17T11:07:47.935Z,32.20
2023-03-17T11:10:21.183Z,32.40
2023-03-17T11:12:54.542Z,32.80
2023-03-17T11:15:22.820Z,32.40
2023-03-17T11:17:49.863Z,32.20
2023-03-17T11:20:24.864Z,32.60
2023-03-17T11:23:22.568Z,32.80
2023-03-17T11:26:14.885Z,33.50
2023-03-17T11:28:50.236Z,33.20
2023-03-17T11:31:31.177Z,32.70
2023-03-17T11:34:21.205Z,32.20
2023-03-17T11:37:18.913Z,33.00
2023-03-17T11:40:20.727Z,33.40
2023-03-17T11:43:20.791Z,32.90
2023-03-17T11:46:09.658Z,33.00
2023-03-17T11:48:57.259Z,33.40
2023-03-17T11:51:43.603Z,33.50
2023-03-17T11:54:26.705Z,33.90
2023-03-17T11:57:02.088Z,33.60
2023-03-17T11:59:59.746Z,32.90
2023-03-17T12:02:46.234Z,33.20
2023-03-17T12:05:30.173Z,33.40
2023-03-17T12:08:06.125Z,33.10
2023-03-17T12:10:52.730Z,33.80
2023-03-17T12:13:43.321Z,34.00
2023-03-17T12:16:23.089Z,33.40
2023-03-17T12:19:02.648Z,33.30
2023-03-17T12:21:39.003Z,32.70
2023-03-17T12:24:43.987Z,32.50
2023-03-17T12:27:23.368Z,33.10
2023-03-17T12:30:03.328Z,33.50
2023-03-17T12:33:20.409Z,34.60
2023-03-17T12:35:47.938Z,33.60
2023-03-17T12:38:19.576Z,32.30
2023-03-17T12:41:31.715Z,31.60
2023-03-17T12:44:40.156Z,32.70
2023-03-17T12:47:17.382Z,32.50
2023-03-17T12:50:23.464Z,33.40
2023-03-17T12:52:56.332Z,33.30
2023-03-17T12:55:27.030Z,32.90
2023-03-17T12:58:25.907Z,32.30
2023-03-17T13:01:17.753Z,31.90
2023-03-17T13:04:12.641Z,29.90
2023-03-17T13:06:58.249Z,29.50
2023-03-17T13:09:43.328Z,30.10
2023-03-17T13:12:44.772Z,30.50
2023-03-17T13:15:41.204Z,31.50
2023-03-17T13:18:18.673Z,31.50
2023-03-17T13:20:59.423Z,30.90
2023-03-17T13:23:58.016Z,29.10
2023-03-17T13:26:52.464Z,28.80
2023-03-17T13:29:38.734Z,28.60
2023-03-17T13:32:27.093Z,29.60
2023-03-17T13:35:19.150Z,29.90
2023-03-17T13:38:04.860Z,29.80
2023-03-17T13:41:00.622Z,29.00
2023-03-17T13:43:44.677Z,28.80
2023-03-17T13:46:27.319Z,29.00
2023-03-17T13:48:56.699Z,29.40
2023-03-17T13:51:27.634Z,30.10
2023-03-17T13:53:58.135Z,29.20
2023-03-17T13:56:48.626Z,30.00
2023-03-17T13:59:37.041Z,30.30
2023-03-17T14:02:17.287Z,29.10
2023-03-17T14:04:55.625Z,29.10
2023-03-17T14:07:26.812Z,29.70
2023-03-17T14:10:00.484Z,30.10
2023-03-17T14:12:55.120Z,30.00
2023-03-17T14:15:37.906Z,29.90
2023-03-17T14:18:18.498Z,30.30
2023-03-17T14:21:01.045Z,30.00
2023-03-17T14:23:29.394Z,30.10
2023-03-17T14:25:58.051Z,29.80
2023-03-17T14:28:38.406Z,29.80
2023-03-17T14:31:08.183Z,30.60
2023-03-17T14:33:41.225Z,29.50
2023-03-17T14:36:14.148Z,29.80
2023-03-17T14:38:48.720Z,29.80
2023-03-17T14:41:17.506Z,29.40
2023-03-17T14:43:45.665Z,29.20
2023-03-17T14:46:22.805Z,28.30
2023-03-17T14:49:02.294Z,27.60
2023-03-17T14:51:40.775Z,27.70
2023-03-17T14:54:32.467Z,27.60
2023-03-17T14:57:08.844Z,27.60
2023-03-17T14:59:43.655Z,28.10
2023-03-17T15:02:23.471Z,27.60
2023-03-17T15:04:58.888Z,27.70
2023-03-17T15:07:37.263Z,27.60
2023-03-17T15:10:07.380Z,28.00
2023-03-17T15:12:34.429Z,27.50
2023-03-17T15:15:06.650Z,28.00
2023-03-17T15:17:36.525Z,28.00
2023-03-17T15:20:06.927Z,27.90
2023-03-17T15:22:42.254Z,29.10
2023-03-17T15:25:18.200Z,28.10
2023-03-17T15:27:46.348Z,28.10
2023-03-17T15:30:14.616Z,28.00
2023-03-17T15:32:41.665Z,27.70
2023-03-17T15:35:12.602Z,26.90
2023-03-17T15:37:40.580Z,27.10
2023-03-17T15:40:09.465Z,28.10
2023-03-17T15:42:39.526Z,28.50
2023-03-17T15:45:07.210Z,28.70
2023-03-17T15:47:37.424Z,27.50
2023-03-17T15:50:37.047Z,28.50
2023-03-17T15:53:04.096Z,28.60
2023-03-17T15:55:31.525Z,28.40
2023-03-17T15:57:59.525Z,28.60
2023-03-17T16:00:29.905Z,28.20
2023-03-17T16:03:01.543Z,27.90
2023-03-17T16:05:32.902Z,28.00
2023-03-17T16:07:59.892Z,28.30
2023-03-17T16:10:30.586Z,28.40
2023-03-17T16:12:58.560Z,28.00
2023-03-17T16:15:31.872Z,27.90
2023-03-17T16:18:02.596Z,28.60
2023-03-17T16:20:36.263Z,28.60
2023-03-17T16:23:27.693Z,28.90
2023-03-17T16:25:59.240Z,28.40
2023-03-17T16:28:32.923Z,28.20
2023-03-17T16:31:02.040Z,28.60
2023-03-17T16:33:33.883Z,29.40
2023-03-17T16:36:01.644Z,29.90
2023-03-17T16:38:31.615Z,30.00
2023-03-17T16:41:13.478Z,29.90
2023-03-17T16:43:44.310Z,29.80
2023-03-17T16:46:12.422Z,29.10
2023-03-17T16:48:39.585Z,28.80
2023-03-17T16:51:07.781Z,29.00
2023-03-17T16:53:35.801Z,28.50
2023-03-17T16:56:03.409Z,28.60
2023-03-17T16:58:34.669Z,28.60
2023-03-17T17:01:06.924Z,28.60
2023-03-17T17:03:37.794Z,28.60
2023-03-17T17:06:07.233Z,29.40
2023-03-17T17:08:34.320Z,28.50
2023-03-17T17:11:01.299Z,27.20
2023-03-17T17:13:28.655Z,28.70
2023-03-17T17:15:56.267Z,28.50
2023-03-17T17:18:24.738Z,27.20
2023-03-17T17:20:53.283Z,27.40
2023-03-17T17:23:26.224Z,27.50
2023-03-17T17:25:54.079Z,26.80
2023-03-17T17:28:23.510Z,27.40
2023-03-17T17:30:52.068Z,26.70
2023-03-17T17:33:19.937Z,27.10
2023-03-17T17:35:48.141Z,26.60
2023-03-17T17:38:22.192Z,26.60
2023-03-17T17:40:49.963Z,27.40
2023-03-17T17:43:18.308Z,28.00
2023-03-17T17:45:50.402Z,27.80
2023-03-17T17:48:19.533Z,27.40
2023-03-17T17:50:46.730Z,28.30
2023-03-17T17:53:15.041Z,27.60
2023-03-17T17:55:44.889Z,26.70
2023-03-17T17:58:17.344Z,27.60
2023-03-17T18:00:44.570Z,28.40
2023-03-17T18:03:11.669Z,27.10
2023-03-17T18:05:39.213Z,27.50
2023-03-17T18:08:06.743Z,28.10
2023-03-17T18:10:34.654Z,26.90
2023-03-17T18:13:01.978Z,27.10
2023-03-17T18:15:29.278Z,26.50
2023-03-17T18:17:56.946Z,26.30
2023-03-17T18:20:24.459Z,26.80
2023-03-17T18:22:52.617Z,27.00
2023-03-17T18:25:20.321Z,27.80
2023-03-17T18:27:48.323Z,28.00
2023-03-17T18:30:23.499Z,26.70
2023-03-17T18:32:55.105Z,27.40
2023-03-17T18:35:24.183Z,27.00
2023-03-17T18:37:52.004Z,26.60
2023-03-17T18:40:19.583Z,26.40
2023-03-17T18:42:47.061Z,27.20
2023-03-17T18:45:14.988Z,27.00
2023-03-17T18:47:42.319Z,26.10
2023-03-17T18:50:11.888Z,27.10
2023-03-17T18:52:41.200Z,26.90
2023-03-17T18:55:09.990Z,27.60
2023-03-17T18:57:37.338Z,28.10
2023-03-17T19:00:06.139Z,27.30
2023-03-17T19:02:33.434Z,28.10
2023-03-17T19:05:00.945Z,27.90
2023-03-17T19:07:28.064Z,26.90
2023-03-17T19:09:55.181Z,26.50
2023-03-17T19:12:22.277Z,26.50
2023-03-17T19:14:49.467Z,27.00
2023-03-17T19:17:17.058Z,26.90
2023-03-17T19:19:44.046Z,26.00
2023-03-17T19:22:11.178Z,26.70
2023-03-17T19:24:38.786Z,25.70
2023-03-17T19:27:06.104Z,25.10
2023-03-17T19:29:33.453Z,25.60
2023-03-17T19:32:00.673Z,26.10
2023-03-17T19:34:27.633Z,25.90
2023-03-17T19:36:54.604Z,25.10
2023-03-17T19:39:23.068Z,25.40
2023-03-17T19:41:55.209Z,25.20
2023-03-17T19:44:22.691Z,24.90
2023-03-17T19:46:49.997Z,24.20
2023-03-17T19:49:17.344Z,24.50
2023-03-17T19:51:44.563Z,24.80
2023-03-17T19:54:12.905Z,24.30
2023-03-17T19:56:40.148Z,24.50
2023-03-17T19:59:09.161Z,24.90
2023-03-17T20:01:38.060Z,25.20
2023-03-17T20:04:07.147Z,25.20
2023-03-17T20:06:34.861Z,25.90
2023-03-17T20:09:04.289Z,25.80
2023-03-17T20:11:34.098Z,25.70
2023-03-17T20:14:02.479Z,25.60
2023-03-17T20:16:35.137Z,26.30
2023-03-17T20:19:03.722Z,25.60
2023-03-17T20:21:31.447Z,25.00
2023-03-17T20:23:59.082Z,25.30
2023-03-17T20:26:26.460Z,24.70
2023-03-17T20:28:53.917Z,24.60
2023-03-17T20:31:21.205Z,24.90
2023-03-17T20:33:48.491Z,25.70
2023-03-17T20:36:15.460Z,26.00
2023-03-17T20:38:43.842Z,26.80
2023-03-17T20:41:14.735Z,26.30
2023-03-17T20:43:42.311Z,25.70
2023-03-17T20:46:17.526Z,26.40
2023-03-17T20:48:47.813Z,25.30
2023-03-17T20:51:17.044Z,25.70
2023-03-17T20:53:46.506Z,25.20
2023-03-17T20:56:19.945Z,25.00
2023-03-17T20:58:48.635Z,26.40
2023-03-17T21:01:20.761Z,26.10
2023-03-17T21:03:48.773Z,26.60
2023-03-17T21:06:16.432Z,26.30
2023-03-17T21:08:43.555Z,26.30
2023-03-17T21:11:16.643Z,25.90
2023-03-17T21:13:44.362Z,25.40
2023-03-17T21:16:17.463Z,25.20
2023-03-17T21:18:44.853Z,25.40
2023-03-17T21:21:11.878Z,24.60
2023-03-17T21:23:39.076Z,25.10
2023-03-17T21:26:06.259Z,25.10
2023-03-17T21:28:33.334Z,25.60
2023-03-17T21:31:02.098Z,26.00
2023-03-17T21:33:29.556Z,26.20
2023-03-17T21:35:58.990Z,25.40
2023-03-17T21:38:28.260Z,25.70
2023-03-17T21:40:56.924Z,26.40
2023-03-17T21:43:24.555Z,26.20
2023-03-17T21:45:51.955Z,26.00
2023-03-17T21:48:19.074Z,26.20
2023-03-17T21:50:48.943Z,27.00
2023-03-17T21:53:15.970Z,26.60
2023-03-17T21:55:43.035Z,26.90
2023-03-17T21:58:10.012Z,26.40
2023-03-17T22:00:45.057Z,26.10
2023-03-17T22:03:13.293Z,26.20
2023-03-17T22:05:40.381Z,26.40
2023-03-17T22:08:07.458Z,26.60
2023-03-17T22:10:34.523Z,26.00
2023-03-17T22:13:01.488Z,26.60
2023-03-17T22:15:29.238Z,25.80
2023-03-17T22:17:57.772Z,25.70
2023-03-17T22:20:24.826Z,26.00
2023-03-17T22:22:51.802Z,26.90
2023-03-17T22:25:18.841Z,26.30
2023-03-17T22:27:45.939Z,26.80
2023-03-17T22:30:13.140Z,26.00
2023-03-17T22:32:40.292Z,26.40
2023-03-17T22:35:07.900Z,26.40
2023-03-17T22:37:35.016Z,26.90
2023-03-17T22:40:06.509Z,26.80
2023-03-17T22:42:33.841Z,26.00
2023-03-17T22:45:00.897Z,26.40
2023-03-17T22:47:27.985Z,26.20
2023-03-17T22:49:54.990Z,26.90
2023-03-17T22:52:21.983Z,25.70
2023-03-17T22:54:49.025Z,27.10
2023-03-17T22:57:16.145Z,27.70
2023-03-17T22:59:43.176Z,27.50
2023-03-17T23:02:11.410Z,27.50
2023-03-17T23:04:38.811Z,28.10
2023-03-17T23:07:05.878Z,27.00
2023-03-17T23:09:33.198Z,27.50
2023-03-17T23:12:00.785Z,26.60
2023-03-17T23:14:28.102Z,26.40
2023-03-17T23:16:55.569Z,26.20
2023-03-17T23:19:22.726Z,26.20
2023-03-17T23:21:49.786Z,26.50
2023-03-17T23:24:17.400Z,26.60
2023-03-17T23:26:44.663Z,26.90
2023-03-17T23:29:11.845Z,27.20
2023-03-17T23:31:39.694Z,27.60
2023-03-17T23:34:07.955Z,27.40
2023-03-17T23:36:38.595Z,27.00
2023-03-17T23:39:06.044Z,26.20
2023-03-17T23:41:33.432Z,26.60
2023-03-17T23:44:00.504Z,26.80
2023-03-17T23:46:29.159Z,27.50
2023-03-17T23:48:56.426Z,26.80
2023-03-17T23:51:24.056Z,27.50
2023-03-17T23:53:52.135Z,26.90
2023-03-17T23:56:20.733Z,26.70
2023-03-17T23:58:49.044Z,26.90
